sensor_id;sensor_type;location;lat;lon;timestamp;P1;durP1;ratioP1;P2;durP2;ratioP2
64854;SDS011;51321;50.428;8.378;2022-07-31T00:00:46;3.75;;;2.80;;
64854;SDS011;51321;50.428;8.378;2022-07-31T00:03:08;4.03;;;2.67;;
64854;SDS011;51321;50.428;8.378;2022-07-31T00:05:30;3.33;;;2.55;;
64854;SDS011;51321;50.428;8.378;2022-07-31T00:07:53;6.55;;;2.60;;
64854;SDS011;51321;50.428;8.378;2022-07-31T00:10:15;4.40;;;2.55;;
64854;SDS011;51321;50.428;8.378;2022-07-31T00:12:37;3.92;;;2.67;;
64854;SDS011;51321;50.428;8.378;2022-07-31T00:14:59;2.67;;;2.47;;
64854;SDS011;51321;50.428;8.378;2022-07-31T00:19:43;5.72;;;2.33;;
64854;SDS011;51321;50.428;8.378;2022-07-31T00:22:05;3.20;;;2.38;;
64854;SDS011;51321;50.428;8.378;2022-07-31T00:24:28;8.48;;;3.63;;
64854;SDS011;51321;50.428;8.378;2022-07-31T00:26:49;3.13;;;2.35;;
64854;SDS011;51321;50.428;8.378;2022-07-31T00:29:12;6.45;;;2.60;;
64854;SDS011;51321;50.428;8.378;2022-07-31T00:31:33;3.75;;;2.45;;
64854;SDS011;51321;50.428;8.378;2022-07-31T00:33:55;4.28;;;2.20;;
64854;SDS011;51321;50.428;8.378;2022-07-31T00:36:17;3.58;;;2.50;;
64854;SDS011;51321;50.428;8.378;2022-07-31T00:38:39;3.30;;;2.30;;
64854;SDS011;51321;50.428;8.378;2022-07-31T00:41:02;5.32;;;2.55;;
64854;SDS011;51321;50.428;8.378;2022-07-31T00:43:24;6.35;;;3.00;;
64854;SDS011;51321;50.428;8.378;2022-07-31T00:45:46;3.15;;;2.30;;
64854;SDS011;51321;50.428;8.378;2022-07-31T00:48:08;5.03;;;2.90;;
64854;SDS011;51321;50.428;8.378;2022-07-31T00:50:30;2.60;;;2.35;;
64854;SDS011;51321;50.428;8.378;2022-07-31T00:52:51;3.10;;;2.15;;
64854;SDS011;51321;50.428;8.378;2022-07-31T00:55:13;5.80;;;2.53;;
64854;SDS011;51321;50.428;8.378;2022-07-31T00:57:36;4.22;;;2.50;;
64854;SDS011;51321;50.428;8.378;2022-07-31T00:59:58;4.50;;;2.25;;
64854;SDS011;51321;50.428;8.378;2022-07-31T01:02:20;3.72;;;2.22;;
64854;SDS011;51321;50.428;8.378;2022-07-31T01:04:41;3.92;;;2.40;;
64854;SDS011;51321;50.428;8.378;2022-07-31T01:07:03;3.58;;;2.13;;
64854;SDS011;51321;50.428;8.378;2022-07-31T01:09:25;3.90;;;2.40;;
64854;SDS011;51321;50.428;8.378;2022-07-31T01:11:49;5.78;;;2.92;;
64854;SDS011;51321;50.428;8.378;2022-07-31T01:14:19;3.53;;;2.20;;
64854;SDS011;51321;50.428;8.378;2022-07-31T01:16:45;3.45;;;2.50;;
64854;SDS011;51321;50.428;8.378;2022-07-31T01:19:10;3.50;;;2.40;;
64854;SDS011;51321;50.428;8.378;2022-07-31T01:21:41;5.30;;;2.45;;
64854;SDS011;51321;50.428;8.378;2022-07-31T01:24:14;3.60;;;2.53;;
64854;SDS011;51321;50.428;8.378;2022-07-31T01:27:15;2.30;;;1.92;;
64854;SDS011;51321;50.428;8.378;2022-07-31T01:29:48;4.40;;;2.55;;
64854;SDS011;51321;50.428;8.378;2022-07-31T01:32:24;5.97;;;2.50;;
64854;SDS011;51321;50.428;8.378;2022-07-31T01:34:53;4.47;;;2.47;;
64854;SDS011;51321;50.428;8.378;2022-07-31T01:37:20;5.13;;;2.10;;
64854;SDS011;51321;50.428;8.378;2022-07-31T01:39:49;2.35;;;2.15;;
64854;SDS011;51321;50.428;8.378;2022-07-31T01:42:13;4.93;;;2.30;;
64854;SDS011;51321;50.428;8.378;2022-07-31T01:44:42;4.75;;;2.67;;
64854;SDS011;51321;50.428;8.378;2022-07-31T01:47:11;3.25;;;2.67;;
64854;SDS011;51321;50.428;8.378;2022-07-31T01:49:36;3.30;;;2.17;;
64854;SDS011;51321;50.428;8.378;2022-07-31T01:52:00;4.03;;;2.47;;
64854;SDS011;51321;50.428;8.378;2022-07-31T01:54:24;2.35;;;2.15;;
64854;SDS011;51321;50.428;8.378;2022-07-31T01:56:49;3.00;;;2.50;;
64854;SDS011;51321;50.428;8.378;2022-07-31T01:59:12;6.28;;;2.67;;
64854;SDS011;51321;50.428;8.378;2022-07-31T02:01:43;4.10;;;2.58;;
64854;SDS011;51321;50.428;8.378;2022-07-31T02:04:08;6.10;;;2.65;;
64854;SDS011;51321;50.428;8.378;2022-07-31T02:06:31;4.30;;;2.72;;
64854;SDS011;51321;50.428;8.378;2022-07-31T02:08:54;3.50;;;2.50;;
64854;SDS011;51321;50.428;8.378;2022-07-31T02:11:18;3.08;;;2.47;;
64854;SDS011;51321;50.428;8.378;2022-07-31T02:13:42;3.30;;;2.45;;
64854;SDS011;51321;50.428;8.378;2022-07-31T02:16:04;5.53;;;2.38;;
64854;SDS011;51321;50.428;8.378;2022-07-31T02:18:28;3.47;;;2.35;;
64854;SDS011;51321;50.428;8.378;2022-07-31T02:21:15;3.15;;;2.40;;
64854;SDS011;51321;50.428;8.378;2022-07-31T02:23:37;2.35;;;2.15;;
64854;SDS011;51321;50.428;8.378;2022-07-31T02:26:00;3.17;;;2.58;;
64854;SDS011;51321;50.428;8.378;2022-07-31T02:28:23;4.07;;;2.30;;
64854;SDS011;51321;50.428;8.378;2022-07-31T02:30:46;2.55;;;2.35;;
64854;SDS011;51321;50.428;8.378;2022-07-31T02:33:10;2.60;;;2.35;;
64854;SDS011;51321;50.428;8.378;2022-07-31T02:35:37;5.25;;;2.47;;
64854;SDS011;51321;50.428;8.378;2022-07-31T02:38:02;2.90;;;2.40;;
64854;SDS011;51321;50.428;8.378;2022-07-31T02:40:25;5.60;;;2.55;;
64854;SDS011;51321;50.428;8.378;2022-07-31T02:42:47;2.50;;;2.30;;
64854;SDS011;51321;50.428;8.378;2022-07-31T02:45:09;4.03;;;2.50;;
64854;SDS011;51321;50.428;8.378;2022-07-31T02:47:32;2.15;;;1.95;;
64854;SDS011;51321;50.428;8.378;2022-07-31T02:49:56;5.13;;;2.40;;
64854;SDS011;51321;50.428;8.378;2022-07-31T02:52:18;2.92;;;2.05;;
64854;SDS011;51321;50.428;8.378;2022-07-31T02:54:41;3.58;;;2.35;;
64854;SDS011;51321;50.428;8.378;2022-07-31T02:57:05;3.00;;;1.95;;
64854;SDS011;51321;50.428;8.378;2022-07-31T02:59:28;4.22;;;2.55;;
64854;SDS011;51321;50.428;8.378;2022-07-31T03:01:52;4.50;;;2.45;;
64854;SDS011;51321;50.428;8.378;2022-07-31T03:04:14;4.35;;;2.15;;
64854;SDS011;51321;50.428;8.378;2022-07-31T03:06:37;2.97;;;2.10;;
64854;SDS011;51321;50.428;8.378;2022-07-31T03:08:58;4.32;;;2.28;;
64854;SDS011;51321;50.428;8.378;2022-07-31T03:11:22;3.05;;;2.22;;
64854;SDS011;51321;50.428;8.378;2022-07-31T03:13:44;3.95;;;2.55;;
64854;SDS011;51321;50.428;8.378;2022-07-31T03:16:06;2.67;;;1.98;;
64854;SDS011;51321;50.428;8.378;2022-07-31T03:18:31;4.75;;;2.05;;
64854;SDS011;51321;50.428;8.378;2022-07-31T03:20:54;4.13;;;2.58;;
64854;SDS011;51321;50.428;8.378;2022-07-31T03:23:18;3.80;;;2.30;;
64854;SDS011;51321;50.428;8.378;2022-07-31T03:25:47;3.47;;;2.60;;
64854;SDS011;51321;50.428;8.378;2022-07-31T03:28:10;5.95;;;2.58;;
64854;SDS011;51321;50.428;8.378;2022-07-31T03:30:32;3.13;;;2.35;;
64854;SDS011;51321;50.428;8.378;2022-07-31T03:32:54;5.15;;;2.70;;
64854;SDS011;51321;50.428;8.378;2022-07-31T03:35:17;2.80;;;2.22;;
64854;SDS011;51321;50.428;8.378;2022-07-31T03:37:38;2.55;;;2.25;;
64854;SDS011;51321;50.428;8.378;2022-07-31T03:40:00;4.47;;;2.45;;
64854;SDS011;51321;50.428;8.378;2022-07-31T03:42:25;4.47;;;2.22;;
64854;SDS011;51321;50.428;8.378;2022-07-31T03:44:50;3.35;;;2.35;;
64854;SDS011;51321;50.428;8.378;2022-07-31T03:47:12;4.15;;;2.00;;
64854;SDS011;51321;50.428;8.378;2022-07-31T03:49:34;3.70;;;2.38;;
64854;SDS011;51321;50.428;8.378;2022-07-31T03:51:56;2.58;;;2.30;;
64854;SDS011;51321;50.428;8.378;2022-07-31T03:54:18;3.47;;;2.08;;
64854;SDS011;51321;50.428;8.378;2022-07-31T03:56:47;2.58;;;2.00;;
64854;SDS011;51321;50.428;8.378;2022-07-31T03:59:12;4.93;;;2.55;;
64854;SDS011;51321;50.428;8.378;2022-07-31T04:01:36;2.80;;;2.55;;
64854;SDS011;51321;50.428;8.378;2022-07-31T04:03:59;3.08;;;2.17;;
64854;SDS011;51321;50.428;8.378;2022-07-31T04:06:26;3.80;;;2.47;;
64854;SDS011;51321;50.428;8.378;2022-07-31T04:08:48;7.60;;;2.88;;
64854;SDS011;51321;50.428;8.378;2022-07-31T04:11:10;3.45;;;2.55;;
64854;SDS011;51321;50.428;8.378;2022-07-31T04:13:33;2.92;;;2.50;;
64854;SDS011;51321;50.428;8.378;2022-07-31T04:15:56;3.20;;;2.53;;
64854;SDS011;51321;50.428;8.378;2022-07-31T04:18:19;3.63;;;2.20;;
64854;SDS011;51321;50.428;8.378;2022-07-31T04:20:41;4.65;;;2.50;;
64854;SDS011;51321;50.428;8.378;2022-07-31T04:23:03;3.78;;;2.40;;
64854;SDS011;51321;50.428;8.378;2022-07-31T04:25:43;5.50;;;2.33;;
64854;SDS011;51321;50.428;8.378;2022-07-31T04:28:24;3.75;;;2.38;;
64854;SDS011;51321;50.428;8.378;2022-07-31T04:30:46;2.55;;;2.20;;
64854;SDS011;51321;50.428;8.378;2022-07-31T04:33:07;4.45;;;2.40;;
64854;SDS011;51321;50.428;8.378;2022-07-31T04:35:31;2.28;;;2.08;;
64854;SDS011;51321;50.428;8.378;2022-07-31T04:37:53;4.07;;;2.40;;
64854;SDS011;51321;50.428;8.378;2022-07-31T04:40:15;3.40;;;2.10;;
64854;SDS011;51321;50.428;8.378;2022-07-31T04:42:38;3.80;;;2.20;;
64854;SDS011;51321;50.428;8.378;2022-07-31T04:44:59;3.13;;;2.17;;
64854;SDS011;51321;50.428;8.378;2022-07-31T04:47:21;4.70;;;2.10;;
64854;SDS011;51321;50.428;8.378;2022-07-31T04:49:44;2.33;;;2.03;;
64854;SDS011;51321;50.428;8.378;2022-07-31T04:52:10;3.22;;;2.33;;
64854;SDS011;51321;50.428;8.378;2022-07-31T04:54:36;2.75;;;1.92;;
64854;SDS011;51321;50.428;8.378;2022-07-31T04:56:58;2.70;;;2.30;;
64854;SDS011;51321;50.428;8.378;2022-07-31T04:59:20;3.03;;;2.15;;
64854;SDS011;51321;50.428;8.378;2022-07-31T05:01:43;2.13;;;1.92;;
64854;SDS011;51321;50.428;8.378;2022-07-31T05:04:07;3.17;;;1.98;;
64854;SDS011;51321;50.428;8.378;2022-07-31T05:08:56;2.30;;;1.90;;
64854;SDS011;51321;50.428;8.378;2022-07-31T05:11:20;3.45;;;2.40;;
64854;SDS011;51321;50.428;8.378;2022-07-31T05:13:45;4.63;;;2.22;;
64854;SDS011;51321;50.428;8.378;2022-07-31T05:16:09;2.58;;;2.10;;
64854;SDS011;51321;50.428;8.378;2022-07-31T05:18:31;3.05;;;2.33;;
64854;SDS011;51321;50.428;8.378;2022-07-31T05:21:31;4.55;;;2.20;;
64854;SDS011;51321;50.428;8.378;2022-07-31T05:24:15;2.00;;;1.80;;
64854;SDS011;51321;50.428;8.378;2022-07-31T05:26:51;2.30;;;1.90;;
64854;SDS011;51321;50.428;8.378;2022-07-31T05:29:13;3.17;;;2.22;;
64854;SDS011;51321;50.428;8.378;2022-07-31T05:31:36;4.60;;;2.00;;
64854;SDS011;51321;50.428;8.378;2022-07-31T05:33:59;3.30;;;2.30;;
64854;SDS011;51321;50.428;8.378;2022-07-31T05:36:20;2.65;;;1.90;;
64854;SDS011;51321;50.428;8.378;2022-07-31T05:38:42;1.95;;;1.75;;
64854;SDS011;51321;50.428;8.378;2022-07-31T05:41:24;3.80;;;2.10;;
64854;SDS011;51321;50.428;8.378;2022-07-31T05:43:54;2.10;;;2.00;;
64854;SDS011;51321;50.428;8.378;2022-07-31T05:46:23;3.65;;;1.80;;
64854;SDS011;51321;50.428;8.378;2022-07-31T05:48:45;1.73;;;1.60;;
64854;SDS011;51321;50.428;8.378;2022-07-31T05:51:07;3.75;;;1.75;;
64854;SDS011;51321;50.428;8.378;2022-07-31T05:53:30;3.15;;;1.95;;
64854;SDS011;51321;50.428;8.378;2022-07-31T05:56:25;2.17;;;1.60;;
64854;SDS011;51321;50.428;8.378;2022-07-31T05:58:49;2.78;;;1.85;;
64854;SDS011;51321;50.428;8.378;2022-07-31T06:01:11;2.03;;;1.67;;
64854;SDS011;51321;50.428;8.378;2022-07-31T06:03:33;2.40;;;1.67;;
64854;SDS011;51321;50.428;8.378;2022-07-31T06:05:59;2.20;;;1.77;;
64854;SDS011;51321;50.428;8.378;2022-07-31T06:08:22;2.70;;;2.15;;
64854;SDS011;51321;50.428;8.378;2022-07-31T06:10:45;4.80;;;1.88;;
64854;SDS011;51321;50.428;8.378;2022-07-31T06:13:08;1.92;;;1.65;;
64854;SDS011;51321;50.428;8.378;2022-07-31T06:15:31;2.42;;;1.75;;
64854;SDS011;51321;50.428;8.378;2022-07-31T06:17:53;2.75;;;1.60;;
64854;SDS011;51321;50.428;8.378;2022-07-31T06:20:22;2.65;;;1.77;;
64854;SDS011;51321;50.428;8.378;2022-07-31T06:22:43;2.15;;;1.95;;
64854;SDS011;51321;50.428;8.378;2022-07-31T06:25:06;2.63;;;1.90;;
64854;SDS011;51321;50.428;8.378;2022-07-31T06:27:28;2.25;;;1.63;;
64854;SDS011;51321;50.428;8.378;2022-07-31T06:29:51;3.53;;;1.73;;
64854;SDS011;51321;50.428;8.378;2022-07-31T06:32:15;4.05;;;1.80;;
64854;SDS011;51321;50.428;8.378;2022-07-31T06:34:37;2.53;;;2.10;;
64854;SDS011;51321;50.428;8.378;2022-07-31T06:36:59;2.67;;;1.80;;
64854;SDS011;51321;50.428;8.378;2022-07-31T06:39:21;1.65;;;1.55;;
64854;SDS011;51321;50.428;8.378;2022-07-31T06:42:03;2.00;;;1.70;;
64854;SDS011;51321;50.428;8.378;2022-07-31T06:44:24;5.32;;;1.98;;
64854;SDS011;51321;50.428;8.378;2022-07-31T06:47:14;2.33;;;1.50;;
64854;SDS011;51321;50.428;8.378;2022-07-31T06:49:54;1.70;;;1.60;;
64854;SDS011;51321;50.428;8.378;2022-07-31T06:52:20;2.28;;;1.63;;
64854;SDS011;51321;50.428;8.378;2022-07-31T06:54:42;2.75;;;1.58;;
64854;SDS011;51321;50.428;8.378;2022-07-31T06:57:04;2.50;;;1.58;;
64854;SDS011;51321;50.428;8.378;2022-07-31T06:59:26;2.03;;;1.80;;
64854;SDS011;51321;50.428;8.378;2022-07-31T07:01:48;2.50;;;1.52;;
64854;SDS011;51321;50.428;8.378;2022-07-31T07:04:11;3.15;;;1.83;;
64854;SDS011;51321;50.428;8.378;2022-07-31T07:06:33;2.10;;;1.50;;
64854;SDS011;51321;50.428;8.378;2022-07-31T07:08:55;1.70;;;1.55;;
64854;SDS011;51321;50.428;8.378;2022-07-31T07:11:16;3.08;;;2.13;;
64854;SDS011;51321;50.428;8.378;2022-07-31T07:13:39;2.42;;;1.55;;
64854;SDS011;51321;50.428;8.378;2022-07-31T07:18:23;4.25;;;1.80;;
64854;SDS011;51321;50.428;8.378;2022-07-31T07:20:48;2.80;;;1.85;;
64854;SDS011;51321;50.428;8.378;2022-07-31T07:23:11;1.88;;;1.52;;
64854;SDS011;51321;50.428;8.378;2022-07-31T07:25:48;2.47;;;1.40;;
64854;SDS011;51321;50.428;8.378;2022-07-31T07:28:10;4.10;;;1.50;;
64854;SDS011;51321;50.428;8.378;2022-07-31T07:32:56;3.78;;;1.75;;
64854;SDS011;51321;50.428;8.378;2022-07-31T07:35:18;1.98;;;1.67;;
64854;SDS011;51321;50.428;8.378;2022-07-31T07:37:47;2.08;;;1.48;;
64854;SDS011;51321;50.428;8.378;2022-07-31T07:40:09;2.42;;;1.48;;
64854;SDS011;51321;50.428;8.378;2022-07-31T07:42:31;3.15;;;1.40;;
64854;SDS011;51321;50.428;8.378;2022-07-31T07:44:53;2.75;;;1.35;;
64854;SDS011;51321;50.428;8.378;2022-07-31T07:47:15;2.38;;;1.50;;
64854;SDS011;51321;50.428;8.378;2022-07-31T07:49:37;3.63;;;1.70;;
64854;SDS011;51321;50.428;8.378;2022-07-31T07:52:19;1.25;;;1.15;;
64854;SDS011;51321;50.428;8.378;2022-07-31T07:55:16;3.97;;;1.65;;
64854;SDS011;51321;50.428;8.378;2022-07-31T07:57:57;3.90;;;1.48;;
64854;SDS011;51321;50.428;8.378;2022-07-31T08:00:38;3.78;;;1.67;;
64854;SDS011;51321;50.428;8.378;2022-07-31T08:03:00;3.90;;;1.30;;
64854;SDS011;51321;50.428;8.378;2022-07-31T08:05:22;2.35;;;1.35;;
64854;SDS011;51321;50.428;8.378;2022-07-31T08:07:44;2.58;;;1.33;;
64854;SDS011;51321;50.428;8.378;2022-07-31T08:10:26;2.60;;;1.52;;
64854;SDS011;51321;50.428;8.378;2022-07-31T08:12:55;1.77;;;1.27;;
64854;SDS011;51321;50.428;8.378;2022-07-31T08:15:20;1.33;;;1.23;;
64854;SDS011;51321;50.428;8.378;2022-07-31T08:18:01;1.88;;;1.10;;
64854;SDS011;51321;50.428;8.378;2022-07-31T08:20:22;5.13;;;1.38;;
64854;SDS011;51321;50.428;8.378;2022-07-31T08:22:45;1.65;;;1.08;;
64854;SDS011;51321;50.428;8.378;2022-07-31T08:25:07;2.65;;;1.45;;
64854;SDS011;51321;50.428;8.378;2022-07-31T08:27:30;2.70;;;1.42;;
64854;SDS011;51321;50.428;8.378;2022-07-31T08:29:53;1.92;;;1.20;;
64854;SDS011;51321;50.428;8.378;2022-07-31T08:32:16;3.72;;;1.25;;
64854;SDS011;51321;50.428;8.378;2022-07-31T08:35:07;1.48;;;1.00;;
64854;SDS011;51321;50.428;8.378;2022-07-31T08:37:29;2.53;;;1.33;;
64854;SDS011;51321;50.428;8.378;2022-07-31T08:39:51;1.40;;;0.80;;
64854;SDS011;51321;50.428;8.378;2022-07-31T08:42:13;3.13;;;1.00;;
64854;SDS011;51321;50.428;8.378;2022-07-31T08:44:37;2.90;;;1.52;;
64854;SDS011;51321;50.428;8.378;2022-07-31T08:47:00;3.70;;;1.05;;
64854;SDS011;51321;50.428;8.378;2022-07-31T08:49:24;5.15;;;1.15;;
64854;SDS011;51321;50.428;8.378;2022-07-31T08:51:47;3.00;;;1.25;;
64854;SDS011;51321;50.428;8.378;2022-07-31T08:54:28;4.53;;;1.00;;
64854;SDS011;51321;50.428;8.378;2022-07-31T08:56:52;1.23;;;0.90;;
64854;SDS011;51321;50.428;8.378;2022-07-31T08:59:14;1.80;;;1.20;;
64854;SDS011;51321;50.428;8.378;2022-07-31T09:04:00;3.50;;;1.20;;
64854;SDS011;51321;50.428;8.378;2022-07-31T09:06:22;2.65;;;1.15;;
64854;SDS011;51321;50.428;8.378;2022-07-31T09:08:44;2.97;;;1.08;;
64854;SDS011;51321;50.428;8.378;2022-07-31T09:11:07;1.88;;;0.98;;
64854;SDS011;51321;50.428;8.378;2022-07-31T09:13:33;2.80;;;0.98;;
64854;SDS011;51321;50.428;8.378;2022-07-31T09:15:56;2.00;;;1.10;;
64854;SDS011;51321;50.428;8.378;2022-07-31T09:18:20;5.30;;;1.17;;
64854;SDS011;51321;50.428;8.378;2022-07-31T09:20:55;3.67;;;0.80;;
64854;SDS011;51321;50.428;8.378;2022-07-31T09:23:18;1.02;;;0.75;;
64854;SDS011;51321;50.428;8.378;2022-07-31T09:25:49;1.60;;;0.80;;
64854;SDS011;51321;50.428;8.378;2022-07-31T09:28:11;1.50;;;0.90;;
64854;SDS011;51321;50.428;8.378;2022-07-31T09:30:33;1.67;;;0.80;;
64854;SDS011;51321;50.428;8.378;2022-07-31T09:32:55;1.80;;;0.93;;
64854;SDS011;51321;50.428;8.378;2022-07-31T09:36:00;1.33;;;0.90;;
64854;SDS011;51321;50.428;8.378;2022-07-31T09:38:28;2.47;;;0.80;;
64854;SDS011;51321;50.428;8.378;2022-07-31T09:41:11;0.90;;;0.65;;
64854;SDS011;51321;50.428;8.378;2022-07-31T09:43:52;3.92;;;1.20;;
64854;SDS011;51321;50.428;8.378;2022-07-31T09:46:15;1.92;;;0.82;;
64854;SDS011;51321;50.428;8.378;2022-07-31T09:48:36;1.45;;;0.80;;
64854;SDS011;51321;50.428;8.378;2022-07-31T09:51:10;1.88;;;0.85;;
64854;SDS011;51321;50.428;8.378;2022-07-31T09:53:39;1.77;;;0.77;;
64854;SDS011;51321;50.428;8.378;2022-07-31T09:56:29;1.23;;;0.85;;
64854;SDS011;51321;50.428;8.378;2022-07-31T09:58:52;4.10;;;1.00;;
64854;SDS011;51321;50.428;8.378;2022-07-31T10:01:14;3.03;;;1.05;;
64854;SDS011;51321;50.428;8.378;2022-07-31T10:03:37;3.25;;;1.10;;
64854;SDS011;51321;50.428;8.378;2022-07-31T10:06:00;3.45;;;1.00;;
64854;SDS011;51321;50.428;8.378;2022-07-31T10:08:25;1.77;;;1.00;;
64854;SDS011;51321;50.428;8.378;2022-07-31T10:11:08;1.83;;;0.90;;
64854;SDS011;51321;50.428;8.378;2022-07-31T10:13:43;2.65;;;1.10;;
64854;SDS011;51321;50.428;8.378;2022-07-31T10:16:06;5.63;;;1.08;;
64854;SDS011;51321;50.428;8.378;2022-07-31T10:18:48;1.42;;;0.85;;
64854;SDS011;51321;50.428;8.378;2022-07-31T10:21:32;4.30;;;1.25;;
64854;SDS011;51321;50.428;8.378;2022-07-31T10:24:05;4.00;;;1.27;;
64854;SDS011;51321;50.428;8.378;2022-07-31T10:26:28;3.40;;;1.15;;
64854;SDS011;51321;50.428;8.378;2022-07-31T10:28:50;3.60;;;1.20;;
64854;SDS011;51321;50.428;8.378;2022-07-31T10:31:12;2.67;;;1.20;;
64854;SDS011;51321;50.428;8.378;2022-07-31T10:33:36;2.33;;;1.20;;
64854;SDS011;51321;50.428;8.378;2022-07-31T10:36:34;2.00;;;1.08;;
64854;SDS011;51321;50.428;8.378;2022-07-31T10:39:07;1.27;;;1.10;;
64854;SDS011;51321;50.428;8.378;2022-07-31T10:41:59;1.60;;;1.10;;
64854;SDS011;51321;50.428;8.378;2022-07-31T10:44:28;2.50;;;1.40;;
64854;SDS011;51321;50.428;8.378;2022-07-31T10:47:15;2.95;;;1.33;;
64854;SDS011;51321;50.428;8.378;2022-07-31T10:49:59;4.63;;;1.10;;
64854;SDS011;51321;50.428;8.378;2022-07-31T10:52:41;2.72;;;1.00;;
64854;SDS011;51321;50.428;8.378;2022-07-31T10:55:18;2.97;;;1.35;;
64854;SDS011;51321;50.428;8.378;2022-07-31T10:58:07;2.35;;;1.10;;
64854;SDS011;51321;50.428;8.378;2022-07-31T11:00:45;2.38;;;1.15;;
64854;SDS011;51321;50.428;8.378;2022-07-31T11:03:36;6.15;;;1.92;;
64854;SDS011;51321;50.428;8.378;2022-07-31T11:06:37;2.22;;;1.15;;
64854;SDS011;51321;50.428;8.378;2022-07-31T11:09:30;5.80;;;1.30;;
64854;SDS011;51321;50.428;8.378;2022-07-31T11:12:15;4.22;;;1.10;;
64854;SDS011;51321;50.428;8.378;2022-07-31T11:15:16;3.05;;;1.10;;
64854;SDS011;51321;50.428;8.378;2022-07-31T11:17:58;1.73;;;1.02;;
64854;SDS011;51321;50.428;8.378;2022-07-31T11:20:36;2.75;;;1.10;;
64854;SDS011;51321;50.428;8.378;2022-07-31T11:22:59;1.50;;;1.00;;
64854;SDS011;51321;50.428;8.378;2022-07-31T11:25:22;3.92;;;1.13;;
64854;SDS011;51321;50.428;8.378;2022-07-31T11:27:46;2.67;;;1.00;;
64854;SDS011;51321;50.428;8.378;2022-07-31T11:30:08;2.88;;;1.10;;
64854;SDS011;51321;50.428;8.378;2022-07-31T11:32:30;2.47;;;1.08;;
64854;SDS011;51321;50.428;8.378;2022-07-31T11:34:52;3.65;;;1.05;;
64854;SDS011;51321;50.428;8.378;2022-07-31T11:37:15;4.03;;;0.82;;
64854;SDS011;51321;50.428;8.378;2022-07-31T11:39:39;3.30;;;0.68;;
64854;SDS011;51321;50.428;8.378;2022-07-31T11:44:24;2.17;;;1.30;;
64854;SDS011;51321;50.428;8.378;2022-07-31T11:46:47;2.13;;;0.90;;
64854;SDS011;51321;50.428;8.378;2022-07-31T11:49:09;3.53;;;0.65;;
64854;SDS011;51321;50.428;8.378;2022-07-31T11:51:41;3.47;;;0.75;;
64854;SDS011;51321;50.428;8.378;2022-07-31T11:56:25;2.35;;;0.95;;
64854;SDS011;51321;50.428;8.378;2022-07-31T11:58:48;1.52;;;0.70;;
64854;SDS011;51321;50.428;8.378;2022-07-31T12:01:12;2.17;;;0.93;;
64854;SDS011;51321;50.428;8.378;2022-07-31T12:03:34;2.35;;;1.05;;
64854;SDS011;51321;50.428;8.378;2022-07-31T12:05:57;1.25;;;0.65;;
64854;SDS011;51321;50.428;8.378;2022-07-31T12:08:20;2.50;;;0.80;;
64854;SDS011;51321;50.428;8.378;2022-07-31T12:10:43;4.07;;;0.93;;
64854;SDS011;51321;50.428;8.378;2022-07-31T12:13:08;3.17;;;0.88;;
64854;SDS011;51321;50.428;8.378;2022-07-31T12:15:31;1.42;;;0.88;;
64854;SDS011;51321;50.428;8.378;2022-07-31T12:20:21;1.70;;;0.77;;
64854;SDS011;51321;50.428;8.378;2022-07-31T12:22:43;3.22;;;0.70;;
64854;SDS011;51321;50.428;8.378;2022-07-31T12:27:31;4.15;;;1.10;;
64854;SDS011;51321;50.428;8.378;2022-07-31T12:32:22;2.28;;;1.27;;
64854;SDS011;51321;50.428;8.378;2022-07-31T12:34:46;1.70;;;1.08;;
64854;SDS011;51321;50.428;8.378;2022-07-31T12:37:08;1.33;;;0.65;;
64854;SDS011;51321;50.428;8.378;2022-07-31T12:39:33;3.25;;;0.90;;
64854;SDS011;51321;50.428;8.378;2022-07-31T12:41:55;2.88;;;0.75;;
64854;SDS011;51321;50.428;8.378;2022-07-31T12:44:18;3.53;;;1.23;;
64854;SDS011;51321;50.428;8.378;2022-07-31T12:46:40;2.90;;;0.70;;
64854;SDS011;51321;50.428;8.378;2022-07-31T12:51:25;1.17;;;0.90;;
64854;SDS011;51321;50.428;8.378;2022-07-31T12:53:47;2.45;;;1.23;;
64854;SDS011;51321;50.428;8.378;2022-07-31T12:56:09;2.35;;;1.00;;
64854;SDS011;51321;50.428;8.378;2022-07-31T12:58:31;4.13;;;0.80;;
64854;SDS011;51321;50.428;8.378;2022-07-31T13:00:53;1.23;;;0.90;;
64854;SDS011;51321;50.428;8.378;2022-07-31T13:03:16;2.90;;;0.82;;
64854;SDS011;51321;50.428;8.378;2022-07-31T13:05:37;1.60;;;0.85;;
64854;SDS011;51321;50.428;8.378;2022-07-31T13:08:01;5.40;;;1.00;;
64854;SDS011;51321;50.428;8.378;2022-07-31T13:10:23;3.40;;;1.10;;
64854;SDS011;51321;50.428;8.378;2022-07-31T13:12:46;1.88;;;0.90;;
64854;SDS011;51321;50.428;8.378;2022-07-31T13:15:09;2.08;;;1.25;;
64854;SDS011;51321;50.428;8.378;2022-07-31T13:17:31;3.53;;;1.17;;
64854;SDS011;51321;50.428;8.378;2022-07-31T13:22:15;2.13;;;1.20;;
64854;SDS011;51321;50.428;8.378;2022-07-31T13:24:38;3.72;;;1.10;;
64854;SDS011;51321;50.428;8.378;2022-07-31T13:26:59;2.08;;;1.05;;
64854;SDS011;51321;50.428;8.378;2022-07-31T13:29:21;1.67;;;1.10;;
64854;SDS011;51321;50.428;8.378;2022-07-31T13:34:05;1.40;;;0.82;;
64854;SDS011;51321;50.428;8.378;2022-07-31T13:38:48;2.33;;;0.98;;
64854;SDS011;51321;50.428;8.378;2022-07-31T13:41:12;2.30;;;1.38;;
64854;SDS011;51321;50.428;8.378;2022-07-31T13:43:44;2.22;;;1.02;;
64854;SDS011;51321;50.428;8.378;2022-07-31T13:46:05;5.05;;;1.00;;
64854;SDS011;51321;50.428;8.378;2022-07-31T13:48:27;3.53;;;1.13;;
64854;SDS011;51321;50.428;8.378;2022-07-31T13:53:11;1.80;;;0.90;;
64854;SDS011;51321;50.428;8.378;2022-07-31T13:55:32;2.40;;;1.10;;
64854;SDS011;51321;50.428;8.378;2022-07-31T13:57:56;3.17;;;1.25;;
64854;SDS011;51321;50.428;8.378;2022-07-31T14:00:17;2.80;;;1.15;;
64854;SDS011;51321;50.428;8.378;2022-07-31T14:02:39;3.85;;;1.00;;
64854;SDS011;51321;50.428;8.378;2022-07-31T14:05:03;3.08;;;1.10;;
64854;SDS011;51321;50.428;8.378;2022-07-31T14:07:26;1.25;;;1.00;;
64854;SDS011;51321;50.428;8.378;2022-07-31T14:12:09;1.25;;;0.82;;
64854;SDS011;51321;50.428;8.378;2022-07-31T14:14:32;1.83;;;0.93;;
64854;SDS011;51321;50.428;8.378;2022-07-31T14:16:54;2.90;;;1.30;;
64854;SDS011;51321;50.428;8.378;2022-07-31T14:21:37;2.90;;;1.00;;
64854;SDS011;51321;50.428;8.378;2022-07-31T14:26:21;2.45;;;1.10;;
64854;SDS011;51321;50.428;8.378;2022-07-31T14:31:05;2.67;;;0.93;;
64854;SDS011;51321;50.428;8.378;2022-07-31T14:33:27;2.75;;;0.85;;
64854;SDS011;51321;50.428;8.378;2022-07-31T14:38:10;3.15;;;0.82;;
64854;SDS011;51321;50.428;8.378;2022-07-31T14:42:54;1.02;;;0.80;;
64854;SDS011;51321;50.428;8.378;2022-07-31T14:45:16;1.50;;;0.93;;
64854;SDS011;51321;50.428;8.378;2022-07-31T14:50:01;1.63;;;0.90;;
64854;SDS011;51321;50.428;8.378;2022-07-31T14:52:23;1.42;;;0.90;;
64854;SDS011;51321;50.428;8.378;2022-07-31T14:54:45;2.47;;;0.88;;
64854;SDS011;51321;50.428;8.378;2022-07-31T14:59:28;2.45;;;0.80;;
64854;SDS011;51321;50.428;8.378;2022-07-31T15:04:13;2.50;;;0.90;;
64854;SDS011;51321;50.428;8.378;2022-07-31T15:06:35;1.95;;;1.00;;
64854;SDS011;51321;50.428;8.378;2022-07-31T15:08:57;1.75;;;1.05;;
64854;SDS011;51321;50.428;8.378;2022-07-31T15:13:40;4.57;;;1.25;;
64854;SDS011;51321;50.428;8.378;2022-07-31T15:16:03;2.78;;;1.30;;
64854;SDS011;51321;50.428;8.378;2022-07-31T15:18:25;3.13;;;1.55;;
64854;SDS011;51321;50.428;8.378;2022-07-31T15:23:09;1.40;;;0.90;;
64854;SDS011;51321;50.428;8.378;2022-07-31T15:25:31;2.30;;;1.02;;
64854;SDS011;51321;50.428;8.378;2022-07-31T15:30:15;2.45;;;1.23;;
64854;SDS011;51321;50.428;8.378;2022-07-31T15:32:39;2.08;;;0.90;;
64854;SDS011;51321;50.428;8.378;2022-07-31T15:35:01;3.50;;;0.90;;
64854;SDS011;51321;50.428;8.378;2022-07-31T15:37:25;2.10;;;1.17;;
64854;SDS011;51321;50.428;8.378;2022-07-31T15:39:46;2.03;;;1.30;;
64854;SDS011;51321;50.428;8.378;2022-07-31T15:44:30;4.50;;;1.48;;
64854;SDS011;51321;50.428;8.378;2022-07-31T15:49:13;3.00;;;1.65;;